Tinsdal — V2AJ2 — position and weather

sailwx.info

Track history (hours):
 
Tides and Currents Weather Stations Pressure Air Temp Water Temp Dewpoint Dewpoint Depression Visibility Wind Speed Wind Dir Waves Ship Positions

Tinsdal

Last reported at 2018-Feb-23 11:17 UTC. Time now 2018-Feb-24 08:42 UTC.
Position N 35°59' W 005°31'.

Length 90 m; draft 5.3 m.

Type: Cargo ship. MMSI: 305573000.

Date/timePositionNaut miles runAvg speedWind from/ knotsBaromVisibWave heightAir tempDewpointWater temp
2018-Feb-23 11:17N 35°59' W 005°31'2 7.6
2018-Feb-23 10:59N 35°60' W 005°28'4 8.5
2018-Feb-23 10:31N 36°00' W 005°23'4 8.0
2018-Feb-23 10:01N 35°57' W 005°21'3 6.8
2018-Feb-23 09:31N 35°54' W 005°19'0 0.2
2018-Feb-23 08:58N 35°54' W 005°18'0 0.0
2018-Feb-23 08:28N 35°54' W 005°18'0 0.0
2018-Feb-23 07:58N 35°54' W 005°18'0 0.0
2018-Feb-23 07:28N 35°54' W 005°18'0 0.0
2018-Feb-23 07:01N 35°54' W 005°18'0 0.0
2018-Feb-23 06:28N 35°54' W 005°18'0 0.0
2018-Feb-23 05:55N 35°54' W 005°18'0 0.0
2018-Feb-23 05:28N 35°54' W 005°18'0 0.0
2018-Feb-23 04:58N 35°54' W 005°18'0 0.0
2018-Feb-23 04:28N 35°54' W 005°18'0 0.3
2018-Feb-23 04:00N 35°54' W 005°19'1 2.1
2018-Feb-23 03:30N 35°55' W 005°18'4 8.4
2018-Feb-23 02:59N 35°56' W 005°13'4 8.9
2018-Feb-23 02:29N 35°57' W 005°08'  
2018-Feb-19 09:12N 38°22' E 012°56'211.2
2018-Feb-19 09:00N 38°22' E 012°59'510.8
2018-Feb-19 08:30N 38°23' E 013°06'510.5
2018-Feb-19 08:00N 38°24' E 013°12'510.7
2018-Feb-19 07:30N 38°25' E 013°19'510.4
2018-Feb-19 07:00N 38°25' E 013°26'510.0
2018-Feb-19 06:30N 38°24' E 013°32'510.2
2018-Feb-19 06:00N 38°24' E 013°38'510.3
2018-Feb-19 05:30N 38°24' E 013°45'4411.0
2018-Feb-19 01:29N 38°20' E 014°41'510.9
2018-Feb-19 01:00N 38°20' E 014°48'611.2
2018-Feb-19 00:30N 38°18' E 014°55'510.9
2018-Feb-19 00:00N 38°18' E 015°02'611.0
2018-Feb-18 23:28N 38°19' E 015°09'511.2
2018-Feb-18 23:01N 38°20' E 015°15'611.7
2018-Feb-18 22:30N 38°21' E 015°23'611.7
2018-Feb-18 22:00N 38°23' E 015°30'711.2
2018-Feb-18 21:25N 38°21' E 015°38'410.1
2018-Feb-18 21:00N 38°18' E 015°42'5 9.4
2018-Feb-18 20:30N 38°14' E 015°37'510.7
2018-Feb-18 20:01N 38°09' E 015°37'510.7
2018-Feb-18 19:30N 38°04' E 015°36'511.0
2018-Feb-18 19:01N 37°58' E 015°36'610.7
2018-Feb-18 18:24N 37°54' E 015°42'17310.3
2018-Feb-18 01:31N 39°47' E 018°31'011.1
2018-Feb-18 01:30N 39°47' E 018°31'510.9
2018-Feb-18 01:00N 39°51' E 018°36'510.1
2018-Feb-18 00:29N 39°56' E 018°38'36311.0
2018-Feb-16 15:34N 44°39' E 013°31'111.2
2018-Feb-16 15:30N 44°40' E 013°31'611.3
2018-Feb-16 15:00N 44°44' E 013°27'611.4
2018-Feb-16 14:30N 44°49' E 013°22'611.5
2018-Feb-16 14:00N 44°54' E 013°18'510.7
2018-Feb-16 13:30N 44°58' E 013°14'510.2
2018-Feb-16 13:00N 45°03' E 013°10'510.2
2018-Feb-16 12:30N 45°07' E 013°06'510.1
2018-Feb-16 12:00N 45°12' E 013°03'510.2
2018-Feb-16 11:30N 45°16' E 013°01'510.0
2018-Feb-16 11:01N 45°21' E 013°00'5 9.8
2018-Feb-16 10:30N 45°25' E 013°05'510.0
2018-Feb-16 10:00N 45°29' E 013°10'510.0
2018-Feb-16 09:30N 45°33' E 013°14'5 9.2
2018-Feb-16 09:00N 45°37' E 013°16'5 9.2
2018-Feb-16 08:30N 45°42' E 013°15'4 7.6
2018-Feb-16 08:00N 45°45' E 013°14'3 0.1
2018-Feb-14 14:01N 45°48' E 013°14'0 0.0
2018-Feb-14 13:49N 45°48' E 013°14'0 0.0
2018-Feb-14 13:19N 45°48' E 013°14'0 0.0
2018-Feb-14 12:58N 45°48' E 013°14'0 0.0
2018-Feb-14 12:28N 45°48' E 013°14'0 0.0
2018-Feb-14 11:49N 45°48' E 013°14'0 0.0
2018-Feb-14 10:49N 45°48' E 013°14'0 0.0
2018-Feb-14 07:01N 45°48' E 013°14'0 0.0
2018-Feb-14 06:55N 45°48' E 013°14'0 0.0
2018-Feb-14 06:25N 45°48' E 013°14'0 0.0
2018-Feb-14 04:37N 45°48' E 013°14'0 0.0
2018-Feb-14 04:19N 45°48' E 013°14'0 0.0
2018-Feb-14 03:55N 45°48' E 013°14'0 0.0
2018-Feb-14 02:43N 45°48' E 013°14'0 0.0
2018-Feb-14 02:07N 45°48' E 013°14'0 0.0
2018-Feb-13 16:37N 45°48' E 013°14'0 0.0
2018-Feb-13 16:04N 45°48' E 013°14'0 0.0
2018-Feb-13 15:55N 45°48' E 013°14'0 0.0
2018-Feb-13 15:19N 45°48' E 013°14'0 0.0
2018-Feb-13 14:58N 45°48' E 013°14'0 0.0
2018-Feb-13 14:19N 45°48' E 013°14'0 0.0
2018-Feb-13 13:49N 45°48' E 013°14'0 0.0
2018-Feb-13 13:19N 45°48' E 013°14'  
Track history (hours):
 
Tides and Currents Weather Stations Pressure Air Temp Water Temp Dewpoint Dewpoint Depression Visibility Wind Speed Wind Dir Waves Ship Positions

Tinsdal

Last reported at 2018-Feb-23 11:17 UTC. Time now 2018-Feb-24 08:42 UTC.
Position N 35°59' W 005°31'.

Length 90 m; draft 5.3 m.

Type: Cargo ship. MMSI: 305573000.

Date/timePositionNaut miles runAvg speedWind from/ knotsBaromVisibWave heightAir tempDewpointWater temp
2018-Feb-23 11:17N 35°59' W 005°31'2 7.6
2018-Feb-23 10:59N 35°60' W 005°28'4 8.5
2018-Feb-23 10:31N 36°00' W 005°23'4 8.0
2018-Feb-23 10:01N 35°57' W 005°21'3 6.8
2018-Feb-23 09:31N 35°54' W 005°19'0 0.2
2018-Feb-23 08:58N 35°54' W 005°18'0 0.0
2018-Feb-23 08:28N 35°54' W 005°18'0 0.0
2018-Feb-23 07:58N 35°54' W 005°18'0 0.0
2018-Feb-23 07:28N 35°54' W 005°18'0 0.0
2018-Feb-23 07:01N 35°54' W 005°18'0 0.0
2018-Feb-23 06:28N 35°54' W 005°18'0 0.0
2018-Feb-23 05:55N 35°54' W 005°18'0 0.0
2018-Feb-23 05:28N 35°54' W 005°18'0 0.0
2018-Feb-23 04:58N 35°54' W 005°18'0 0.0
2018-Feb-23 04:28N 35°54' W 005°18'0 0.3
2018-Feb-23 04:00N 35°54' W 005°19'1 2.1
2018-Feb-23 03:30N 35°55' W 005°18'4 8.4
2018-Feb-23 02:59N 35°56' W 005°13'4 8.9
2018-Feb-23 02:29N 35°57' W 005°08'  
2018-Feb-19 09:12N 38°22' E 012°56'211.2
2018-Feb-19 09:00N 38°22' E 012°59'510.8
2018-Feb-19 08:30N 38°23' E 013°06'510.5
2018-Feb-19 08:00N 38°24' E 013°12'510.7
2018-Feb-19 07:30N 38°25' E 013°19'510.4
2018-Feb-19 07:00N 38°25' E 013°26'510.0
2018-Feb-19 06:30N 38°24' E 013°32'510.2
2018-Feb-19 06:00N 38°24' E 013°38'510.3
2018-Feb-19 05:30N 38°24' E 013°45'4411.0
2018-Feb-19 01:29N 38°20' E 014°41'510.9
2018-Feb-19 01:00N 38°20' E 014°48'611.2
2018-Feb-19 00:30N 38°18' E 014°55'510.9
2018-Feb-19 00:00N 38°18' E 015°02'611.0
2018-Feb-18 23:28N 38°19' E 015°09'511.2
2018-Feb-18 23:01N 38°20' E 015°15'611.7
2018-Feb-18 22:30N 38°21' E 015°23'611.7
2018-Feb-18 22:00N 38°23' E 015°30'711.2
2018-Feb-18 21:25N 38°21' E 015°38'410.1
2018-Feb-18 21:00N 38°18' E 015°42'5 9.4
2018-Feb-18 20:30N 38°14' E 015°37'510.7
2018-Feb-18 20:01N 38°09' E 015°37'510.7
2018-Feb-18 19:30N 38°04' E 015°36'511.0
2018-Feb-18 19:01N 37°58' E 015°36'610.7
2018-Feb-18 18:24N 37°54' E 015°42'17310.3
2018-Feb-18 01:31N 39°47' E 018°31'011.1
2018-Feb-18 01:30N 39°47' E 018°31'510.9
2018-Feb-18 01:00N 39°51' E 018°36'510.1
2018-Feb-18 00:29N 39°56' E 018°38'36311.0
2018-Feb-16 15:34N 44°39' E 013°31'111.2
2018-Feb-16 15:30N 44°40' E 013°31'611.3
2018-Feb-16 15:00N 44°44' E 013°27'611.4
2018-Feb-16 14:30N 44°49' E 013°22'611.5
2018-Feb-16 14:00N 44°54' E 013°18'510.7
2018-Feb-16 13:30N 44°58' E 013°14'510.2
2018-Feb-16 13:00N 45°03' E 013°10'510.2
2018-Feb-16 12:30N 45°07' E 013°06'510.1
2018-Feb-16 12:00N 45°12' E 013°03'510.2
2018-Feb-16 11:30N 45°16' E 013°01'510.0
2018-Feb-16 11:01N 45°21' E 013°00'5 9.8
2018-Feb-16 10:30N 45°25' E 013°05'510.0
2018-Feb-16 10:00N 45°29' E 013°10'510.0
2018-Feb-16 09:30N 45°33' E 013°14'5 9.2
2018-Feb-16 09:00N 45°37' E 013°16'5 9.2
2018-Feb-16 08:30N 45°42' E 013°15'4 7.6
2018-Feb-16 08:00N 45°45' E 013°14'3 0.1
2018-Feb-14 14:01N 45°48' E 013°14'0 0.0
2018-Feb-14 13:49N 45°48' E 013°14'0 0.0
2018-Feb-14 13:19N 45°48' E 013°14'0 0.0
2018-Feb-14 12:58N 45°48' E 013°14'0 0.0
2018-Feb-14 12:28N 45°48' E 013°14'0 0.0
2018-Feb-14 11:49N 45°48' E 013°14'0 0.0
2018-Feb-14 10:49N 45°48' E 013°14'0 0.0
2018-Feb-14 07:01N 45°48' E 013°14'0 0.0
2018-Feb-14 06:55N 45°48' E 013°14'0 0.0
2018-Feb-14 06:25N 45°48' E 013°14'0 0.0
2018-Feb-14 04:37N 45°48' E 013°14'0 0.0
2018-Feb-14 04:19N 45°48' E 013°14'0 0.0
2018-Feb-14 03:55N 45°48' E 013°14'0 0.0
2018-Feb-14 02:43N 45°48' E 013°14'0 0.0
2018-Feb-14 02:07N 45°48' E 013°14'0 0.0
2018-Feb-13 16:37N 45°48' E 013°14'0 0.0
2018-Feb-13 16:04N 45°48' E 013°14'0 0.0
2018-Feb-13 15:55N 45°48' E 013°14'0 0.0
2018-Feb-13 15:19N 45°48' E 013°14'0 0.0
2018-Feb-13 14:58N 45°48' E 013°14'0 0.0
2018-Feb-13 14:19N 45°48' E 013°14'0 0.0
2018-Feb-13 13:49N 45°48' E 013°14'0 0.0
2018-Feb-13 13:19N 45°48' E 013°14'  

Dump ship's entire track history